PST,Max TemperatureF,Mean TemperatureF,Min TemperatureF,Max Dew PointF,MeanDew PointF,Min DewpointF,Max Humidity, Mean Humidity, Min Humidity, Max Sea Level PressureIn, Mean Sea Level PressureIn, Min Sea Level PressureIn, Max VisibilityMiles, Mean VisibilityMiles, Min VisibilityMiles, Max Wind SpeedMPH, Mean Wind SpeedMPH, Max Gust SpeedMPH,PrecipitationIn, CloudCover, Events, WindDirDegrees
2013-11-1,82,64,46,30,26,23,53,20,12,30.13,30.06,29.97,10,10,10,7,1,,0.00,0,,285
2013-11-2,80,64,48,36,28,21,50,25,11,29.99,29.93,29.87,10,10,10,18,2,,0.00,0,,230
2013-11-3,68,58,48,50,44,37,82,58,33,29.95,29.88,29.81,9,6,3,8,2,,0.00,1,,233
2013-11-4,62,58,55,50,47,39,82,67,52,29.93,29.86,29.83,10,6,3,7,3,12,0.00,5,,290
2013-11-5,71,58,44,39,18,7,81,23,9,30.17,30.10,30.06,10,10,10,22,7,,0.00,0,,355
2013-11-6,78,60,41,18,12,7,36,13,7,30.24,30.19,30.15,10,10,10,7,2,,0.00,2,,319
2013-11-7,84,65,46,25,17,12,37,14,7,30.15,30.08,30.01,20,11,10,4,1,,0.00,5,,60
2013-11-8,80,63,46,28,20,16,37,17,9,30.05,30.00,29.94,10,10,10,7,3,,0.00,0,,249
2013-11-9,80,63,46,30,24,16,43,22,9,30.09,30.05,30.00,10,10,10,7,1,,0.00,0,,195
2013-11-10,77,64,50,28,20,16,37,19,10,30.14,30.09,30.04,10,9,7,9,1,,0.00,2,,265
2013-11-11,82,63,44,36,29,25,57,25,12,30.13,30.08,30.02,10,10,10,12,3,,0.00,0,,257
2013-11-12,77,66,55,37,29,27,39,24,16,30.19,30.13,30.09,10,10,10,5,1,,0.00,5,,55
2013-11-13,89,70,50,30,25,19,43,16,9,30.08,30.00,29.93,10,10,10,13,3,,0.00,0,,313
2013-11-14,87,70,53,28,25,21,38,17,9,29.98,29.89,29.81,10,10,10,10,2,,0.00,0,,246
2013-11-15,64,57,50,48,45,36,72,59,51,29.78,29.73,29.69,10,8,7,8,3,,0.00,6,,140
2013-11-16,57,56,55,50,47,43,82,72,63,29.92,29.86,29.82,10,8,6,7,4,,0.00,8,,267
2013-11-17,68,58,48,46,42,39,76,53,35,30.08,30.03,29.99,10,10,10,7,3,,0.00,1,,225
2013-11-18,66,54,42,48,45,37,82,63,43,30.16,30.10,30.04,10,7,5,8,3,,0.00,4,,245
2013-11-19,60,56,53,48,46,45,82,66,55,30.07,30.01,29.96,10,7,3,6,4,,0.00,7,,260
2013-11-20,59,56,53,48,47,46,82,69,63,29.98,29.93,29.90,10,6,5,4,0,,0.00,8,,250
2013-11-21,59,55,51,54,51,48,88,86,82,29.91,29.87,29.84,7,4,2,10,6,,0.00,8,Rain,133
2013-11-22,55,52,46,39,36,34,76,58,47,29.96,29.92,29.89,10,10,7,20,8,,0.00,7,,331
2013-11-23,60,50,41,39,37,36,87,58,39,30.09,30.03,30.00,10,10,10,17,4,,0.00,4,,324
2013-11-24,64,52,41,39,36,34,81,51,34,30.19,30.15,30.11,10,10,10,9,1,,0.00,1,,360
2013-11-25,68,55,42,39,36,32,76,43,26,30.24,30.19,30.15,10,10,10,8,5,,0.00,0,,138
2013-11-26,73,58,44,39,33,27,71,36,19,30.21,30.13,30.07,10,10,10,9,2,,0.00,4,,134
2013-11-27,71,60,48,39,33,27,62,36,19,30.04,29.96,29.90,10,10,10,12,3,,0.00,3,,98
2013-11-28,66,55,44,36,33,30,66,42,26,30.02,29.97,29.95,10,10,10,6,0,,0.00,5,,80
2013-11-29,57,54,50,48,44,36,82,68,47,30.19,30.15,30.12,10,9,7,9,2,,0.00,6,Rain,83
2013-11-30,73,63,53,46,38,32,72,42,23,30.20,30.14,30.08,10,10,10,8,3,,0.00,3,,270